AUA554 LOWW-LIRF
Flight info
| Callsign | AUA554 |
|---|---|
| Flight time | 1h 18m |
| Altitude | 30000 |
| Route | RUPET DCT GRZ/N0440F380 DCT GIRDA DCT BAXON/N0441F390 DCT UNUMU DCT ETPOK DCT RITEB |
| Aircraft | A21N/M-SDE2E3FGHIRWXY/LB1 |
Departure
| Time | 2026-05-05 14:25 |
|---|---|
| Airport | Vienna International Airport (LOWW) |
Arrival
| Time | 2026-05-05 15:43 |
|---|---|
| Airport | Rome–Fiumicino Leonardo da Vinci International Airport (LIRF) |
| Time | Latitude | Longitude | Altitude | Speed | Heading |
|---|---|---|---|---|---|
| 2026-05-05 14:06 | 48.11956 | 16.57148 | 614 ft | 0 kts | 26° |
| 2026-05-05 14:18 | 48.11955 | 16.57147 | 614 ft | 2 kts | 26° |
| 2026-05-05 14:18 | 48.11934 | 16.57129 | 631 ft | 4 kts | 41° |
| 2026-05-05 14:18 | 48.11917 | 16.57099 | 629 ft | 4 kts | 65° |
| 2026-05-05 14:19 | 48.11910 | 16.57061 | 627 ft | 4 kts | 91° |
| 2026-05-05 14:19 | 48.11914 | 16.57022 | 627 ft | 4 kts | 109° |
| 2026-05-05 14:19 | 48.11925 | 16.56985 | 625 ft | 4 kts | 120° |
| 2026-05-05 14:19 | 48.11939 | 16.56951 | 621 ft | 4 kts | 123° |
| 2026-05-05 14:20 | 48.11948 | 16.56929 | 629 ft | 1 kts | 116° |
| 2026-05-05 14:22 | 48.11945 | 16.56937 | 629 ft | 2 kts | 117° |
| 2026-05-05 14:22 | 48.11932 | 16.56976 | 621 ft | 8 kts | 116° |
| 2026-05-05 14:22 | 48.11896 | 16.57087 | 626 ft | 15 kts | 116° |
| 2026-05-05 14:23 | 48.11827 | 16.57299 | 626 ft | 20 kts | 116° |
| 2026-05-05 14:23 | 48.11809 | 16.57411 | 622 ft | 15 kts | 80° |
| 2026-05-05 14:23 | 48.11830 | 16.57527 | 622 ft | 11 kts | 75° |
| 2026-05-05 14:23 | 48.11854 | 16.57648 | 620 ft | 13 kts | 75° |
| 2026-05-05 14:24 | 48.11852 | 16.57785 | 617 ft | 14 kts | 109° |
| 2026-05-05 14:24 | 48.11791 | 16.57894 | 624 ft | 13 kts | 154° |
| 2026-05-05 14:24 | 48.11742 | 16.57917 | 626 ft | 17 kts | 164° |
| 2026-05-05 14:24 | 48.11415 | 16.58056 | 624 ft | 81 kts | 164° |
| 2026-05-05 14:25 | 48.10645 | 16.58384 | 622 ft | 145 kts | 164° |
| 2026-05-05 14:25 | 48.09575 | 16.58828 | 829 ft | 168 kts | 164° |
| 2026-05-05 14:25 | 48.08444 | 16.59389 | 1294 ft | 177 kts | 164° |
| 2026-05-05 14:25 | 48.07237 | 16.60040 | 1764 ft | 191 kts | 165° |
| 2026-05-05 14:26 | 48.05920 | 16.60598 | 2302 ft | 201 kts | 175° |
| 2026-05-05 14:26 | 48.04491 | 16.60565 | 2853 ft | 215 kts | 193° |
| 2026-05-05 14:26 | 48.03097 | 16.59612 | 3468 ft | 219 kts | 218° |
| 2026-05-05 14:26 | 48.02293 | 16.57888 | 3877 ft | 199 kts | 249° |
| 2026-05-05 14:27 | 48.01944 | 16.55784 | 4099 ft | 222 kts | 249° |
| 2026-05-05 14:27 | 48.01501 | 16.53432 | 4526 ft | 247 kts | 248° |
| 2026-05-05 14:27 | 48.01026 | 16.51027 | 4939 ft | 228 kts | 248° |
| 2026-05-05 14:27 | 48.00607 | 16.48886 | 5223 ft | 210 kts | 245° |
| 2026-05-05 14:28 | 47.99904 | 16.47050 | 5366 ft | 201 kts | 224° |
| 2026-05-05 14:28 | 47.98777 | 16.45864 | 5537 ft | 200 kts | 204° |
| 2026-05-05 14:28 | 47.97491 | 16.45007 | 5933 ft | 204 kts | 206° |
| 2026-05-05 14:28 | 47.96301 | 16.43891 | 6235 ft | 203 kts | 220° |
| 2026-05-05 14:29 | 47.95347 | 16.42115 | 6580 ft | 237 kts | 239° |
| 2026-05-05 14:29 | 47.94836 | 16.39676 | 7066 ft | 256 kts | 256° |
| 2026-05-05 14:29 | 47.94564 | 16.37033 | 7888 ft | 260 kts | 256° |
| 2026-05-05 14:29 | 47.94262 | 16.34303 | 8742 ft | 273 kts | 257° |
| 2026-05-05 14:30 | 47.93926 | 16.31464 | 9644 ft | 283 kts | 257° |
| 2026-05-05 14:30 | 47.93550 | 16.28539 | 10453 ft | 293 kts | 255° |
| 2026-05-05 14:30 | 47.92928 | 16.25527 | 10951 ft | 315 kts | 250° |
| 2026-05-05 14:30 | 47.92216 | 16.22372 | 11659 ft | 327 kts | 251° |
| 2026-05-05 14:31 | 47.91539 | 16.19165 | 12692 ft | 326 kts | 252° |
| 2026-05-05 14:31 | 47.90889 | 16.15911 | 13690 ft | 331 kts | 253° |
| 2026-05-05 14:31 | 47.90245 | 16.12560 | 14359 ft | 340 kts | 253° |
| 2026-05-05 14:31 | 47.89595 | 16.09100 | 15006 ft | 351 kts | 253° |
| 2026-05-05 14:32 | 47.88945 | 16.05589 | 15979 ft | 349 kts | 253° |
| 2026-05-05 14:32 | 47.88167 | 16.02145 | 16874 ft | 350 kts | 245° |
| 2026-05-05 14:32 | 47.86990 | 15.98972 | 17744 ft | 353 kts | 234° |
| 2026-05-05 14:32 | 47.85364 | 15.96257 | 18410 ft | 359 kts | 222° |
| 2026-05-05 14:33 | 47.83251 | 15.94070 | 18907 ft | 369 kts | 208° |
| 2026-05-05 14:33 | 47.80925 | 15.92562 | 19676 ft | 371 kts | 203° |
| 2026-05-05 14:33 | 47.78527 | 15.91214 | 20649 ft | 367 kts | 201° |
| 2026-05-05 14:33 | 47.76108 | 15.89872 | 21189 ft | 375 kts | 202° |
| 2026-05-05 14:34 | 47.73649 | 15.88498 | 21747 ft | 381 kts | 202° |
| 2026-05-05 14:34 | 47.71149 | 15.87096 | 22400 ft | 384 kts | 202° |
| 2026-05-05 14:34 | 47.68636 | 15.85686 | 23125 ft | 387 kts | 202° |
| 2026-05-05 14:34 | 47.66136 | 15.84276 | 23870 ft | 384 kts | 202° |
| 2026-05-05 14:35 | 47.63608 | 15.82847 | 24287 ft | 390 kts | 202° |
| 2026-05-05 14:35 | 47.61064 | 15.81410 | 24562 ft | 400 kts | 202° |
| 2026-05-05 14:35 | 47.58455 | 15.79944 | 25162 ft | 400 kts | 202° |
| 2026-05-05 14:35 | 47.55856 | 15.78485 | 25722 ft | 400 kts | 202° |
| 2026-05-05 14:36 | 47.53258 | 15.77025 | 26282 ft | 401 kts | 202° |
| 2026-05-05 14:36 | 47.50641 | 15.75556 | 26734 ft | 404 kts | 202° |
| 2026-05-05 14:36 | 47.47988 | 15.74068 | 27033 ft | 410 kts | 202° |
| 2026-05-05 14:36 | 47.45313 | 15.72571 | 27593 ft | 409 kts | 202° |
| 2026-05-05 14:37 | 47.42661 | 15.71085 | 28183 ft | 409 kts | 202° |
| 2026-05-05 14:37 | 47.39981 | 15.69584 | 28487 ft | 414 kts | 202° |
| 2026-05-05 14:37 | 47.37265 | 15.68063 | 28723 ft | 420 kts | 202° |
| 2026-05-05 14:37 | 47.34526 | 15.66532 | 29152 ft | 422 kts | 202° |
| 2026-05-05 14:38 | 47.31784 | 15.65000 | 29666 ft | 421 kts | 202° |
| 2026-05-05 14:38 | 47.29026 | 15.63464 | 29860 ft | 425 kts | 202° |
| 2026-05-05 14:38 | 47.23510 | 15.60402 | 29864 ft | 425 kts | 202° |
| 2026-05-05 14:39 | 47.17969 | 15.57332 | 29859 ft | 425 kts | 202° |
| 2026-05-05 14:39 | 47.12409 | 15.54251 | 29868 ft | 428 kts | 202° |
| 2026-05-05 14:40 | 47.06883 | 15.51198 | 29884 ft | 427 kts | 202° |
| 2026-05-05 14:40 | 47.01302 | 15.48121 | 29881 ft | 428 kts | 202° |
| 2026-05-05 14:41 | 46.95776 | 15.44874 | 29879 ft | 426 kts | 208° |
| 2026-05-05 14:41 | 46.90622 | 15.40506 | 29883 ft | 429 kts | 212° |
| 2026-05-05 14:42 | 46.85590 | 15.35918 | 29882 ft | 429 kts | 213° |
| 2026-05-05 14:42 | 46.80544 | 15.31262 | 29885 ft | 429 kts | 213° |
| 2026-05-05 14:43 | 46.75480 | 15.26623 | 29892 ft | 428 kts | 213° |
| 2026-05-05 14:43 | 46.70431 | 15.22028 | 29894 ft | 426 kts | 213° |
| 2026-05-05 14:44 | 46.65422 | 15.17487 | 29915 ft | 427 kts | 213° |
| 2026-05-05 14:44 | 46.60376 | 15.12923 | 29926 ft | 427 kts | 213° |
| 2026-05-05 14:45 | 46.55312 | 15.08349 | 29933 ft | 428 kts | 212° |
| 2026-05-05 14:45 | 46.50253 | 15.03791 | 29938 ft | 428 kts | 212° |
| 2026-05-05 14:46 | 46.45173 | 14.99225 | 29948 ft | 428 kts | 212° |
| 2026-05-05 14:46 | 46.40129 | 14.94700 | 29962 ft | 429 kts | 212° |
| 2026-05-05 14:47 | 46.35086 | 14.90191 | 29973 ft | 422 kts | 212° |
| 2026-05-05 14:47 | 46.30078 | 14.85722 | 29986 ft | 423 kts | 212° |
| 2026-05-05 14:48 | 46.25077 | 14.81264 | 29998 ft | 421 kts | 212° |
| 2026-05-05 14:48 | 46.20072 | 14.76813 | 29992 ft | 424 kts | 212° |
| 2026-05-05 14:49 | 46.15037 | 14.72344 | 30010 ft | 429 kts | 212° |
| 2026-05-05 14:49 | 46.09941 | 14.67833 | 30012 ft | 430 kts | 212° |
| 2026-05-05 14:50 | 46.04845 | 14.63332 | 30011 ft | 430 kts | 212° |
| 2026-05-05 14:50 | 45.99743 | 14.58835 | 30006 ft | 430 kts | 212° |
| 2026-05-05 14:51 | 45.94637 | 14.54345 | 30005 ft | 430 kts | 212° |
| 2026-05-05 14:51 | 45.89526 | 14.49860 | 30009 ft | 430 kts | 212° |
| 2026-05-05 14:52 | 45.84448 | 14.45413 | 30012 ft | 430 kts | 212° |
| 2026-05-05 14:52 | 45.79344 | 14.40954 | 30014 ft | 430 kts | 212° |
| 2026-05-05 14:53 | 45.74235 | 14.36500 | 30014 ft | 430 kts | 212° |
| 2026-05-05 14:53 | 45.69124 | 14.32054 | 30022 ft | 430 kts | 212° |
| 2026-05-05 14:54 | 45.64011 | 14.27617 | 30028 ft | 428 kts | 212° |
| 2026-05-05 14:54 | 45.58919 | 14.23206 | 30037 ft | 428 kts | 212° |
| 2026-05-05 14:55 | 45.53826 | 14.18804 | 30034 ft | 427 kts | 212° |
| 2026-05-05 14:55 | 45.48753 | 14.14440 | 30037 ft | 428 kts | 211° |
| 2026-05-05 14:56 | 45.43381 | 14.10685 | 30044 ft | 431 kts | 207° |
| 2026-05-05 14:56 | 45.37913 | 14.07133 | 30039 ft | 432 kts | 207° |
| 2026-05-05 14:57 | 45.32417 | 14.03622 | 30033 ft | 432 kts | 207° |
| 2026-05-05 14:57 | 45.26958 | 14.00133 | 30029 ft | 433 kts | 207° |
| 2026-05-05 14:58 | 45.21456 | 13.96611 | 30029 ft | 434 kts | 207° |
| 2026-05-05 14:58 | 45.15940 | 13.93084 | 30027 ft | 434 kts | 207° |
| 2026-05-05 14:59 | 45.10421 | 13.89564 | 30023 ft | 435 kts | 207° |
| 2026-05-05 14:59 | 45.04901 | 13.86050 | 30024 ft | 435 kts | 207° |
| 2026-05-05 15:00 | 45.00303 | 13.83130 | 30024 ft | 435 kts | 207° |
| 2026-05-05 15:00 | 44.93878 | 13.79058 | 30022 ft | 435 kts | 207° |
| 2026-05-05 15:01 | 44.88362 | 13.75568 | 30021 ft | 434 kts | 207° |
| 2026-05-05 15:01 | 44.82846 | 13.72086 | 30022 ft | 434 kts | 207° |
| 2026-05-05 15:02 | 44.77327 | 13.68610 | 30012 ft | 434 kts | 207° |
| 2026-05-05 15:02 | 44.71815 | 13.65146 | 30008 ft | 433 kts | 207° |
| 2026-05-05 15:03 | 44.66339 | 13.61712 | 30007 ft | 433 kts | 207° |
| 2026-05-05 15:03 | 44.60844 | 13.58272 | 30002 ft | 433 kts | 207° |
| 2026-05-05 15:04 | 44.55344 | 13.54838 | 29986 ft | 432 kts | 207° |
| 2026-05-05 15:04 | 44.49845 | 13.51410 | 29987 ft | 431 kts | 207° |
| 2026-05-05 15:05 | 44.41623 | 13.46273 | 29987 ft | 431 kts | 209° |
| 2026-05-05 15:06 | 44.36343 | 13.42453 | 29989 ft | 428 kts | 212° |
| 2026-05-05 15:06 | 44.31144 | 13.38417 | 29981 ft | 427 kts | 212° |
| 2026-05-05 15:07 | 44.25951 | 13.34401 | 29967 ft | 427 kts | 212° |
| 2026-05-05 15:07 | 44.20742 | 13.30432 | 29965 ft | 427 kts | 212° |
| 2026-05-05 15:08 | 44.15526 | 13.26491 | 29968 ft | 425 kts | 212° |
| 2026-05-05 15:08 | 44.10327 | 13.22574 | 29969 ft | 425 kts | 212° |
| 2026-05-05 15:09 | 44.05117 | 13.18655 | 29961 ft | 425 kts | 212° |
| 2026-05-05 15:09 | 43.99902 | 13.14738 | 29960 ft | 425 kts | 212° |
| 2026-05-05 15:10 | 43.94738 | 13.10867 | 29966 ft | 423 kts | 212° |
| 2026-05-05 15:10 | 43.89561 | 13.06995 | 29970 ft | 422 kts | 212° |
| 2026-05-05 15:11 | 43.84377 | 13.03124 | 29955 ft | 423 kts | 212° |
| 2026-05-05 15:11 | 43.80062 | 12.99907 | 29957 ft | 424 kts | 212° |
| 2026-05-05 15:12 | 43.74860 | 12.96037 | 29958 ft | 424 kts | 212° |
| 2026-05-05 15:12 | 43.69656 | 12.92175 | 29964 ft | 424 kts | 212° |
| 2026-05-05 15:13 | 43.64452 | 12.88319 | 29973 ft | 425 kts | 212° |
| 2026-05-05 15:13 | 43.59237 | 12.84464 | 29892 ft | 422 kts | 212° |
| 2026-05-05 15:13 | 43.56674 | 12.82575 | 29379 ft | 414 kts | 212° |
| 2026-05-05 15:14 | 43.54187 | 12.80745 | 28819 ft | 406 kts | 212° |
| 2026-05-05 15:14 | 43.51709 | 12.78923 | 28200 ft | 401 kts | 212° |
| 2026-05-05 15:14 | 43.49263 | 12.77123 | 27588 ft | 396 kts | 212° |
| 2026-05-05 15:14 | 43.46851 | 12.75347 | 26986 ft | 390 kts | 212° |
| 2026-05-05 15:15 | 43.44467 | 12.73590 | 26307 ft | 387 kts | 212° |
| 2026-05-05 15:15 | 43.42113 | 12.71830 | 25675 ft | 383 kts | 213° |
| 2026-05-05 15:15 | 43.39817 | 12.69987 | 25073 ft | 380 kts | 215° |
| 2026-05-05 15:15 | 43.37566 | 12.68099 | 24483 ft | 378 kts | 216° |
| 2026-05-05 15:16 | 43.35340 | 12.66197 | 23881 ft | 375 kts | 216° |
| 2026-05-05 15:16 | 43.33130 | 12.64311 | 23234 ft | 373 kts | 216° |
| 2026-05-05 15:16 | 43.30935 | 12.62439 | 22562 ft | 370 kts | 216° |
| 2026-05-05 15:16 | 43.28750 | 12.60578 | 21927 ft | 367 kts | 215° |
| 2026-05-05 15:17 | 43.26591 | 12.58747 | 21314 ft | 363 kts | 215° |
| 2026-05-05 15:17 | 43.24470 | 12.56956 | 20705 ft | 360 kts | 215° |
| 2026-05-05 15:17 | 43.22345 | 12.55168 | 20132 ft | 356 kts | 214° |
| 2026-05-05 15:17 | 43.20236 | 12.53394 | 19555 ft | 353 kts | 214° |
| 2026-05-05 15:18 | 43.18140 | 12.51632 | 18966 ft | 350 kts | 214° |
| 2026-05-05 15:18 | 43.16072 | 12.49895 | 18392 ft | 347 kts | 214° |
| 2026-05-05 15:18 | 43.14053 | 12.48203 | 17753 ft | 344 kts | 214° |
| 2026-05-05 15:18 | 43.12030 | 12.46510 | 17318 ft | 335 kts | 214° |
| 2026-05-05 15:19 | 43.10077 | 12.44881 | 17071 ft | 322 kts | 214° |
| 2026-05-05 15:19 | 43.08203 | 12.43319 | 16823 ft | 310 kts | 214° |
| 2026-05-05 15:19 | 43.06383 | 12.41801 | 16419 ft | 304 kts | 214° |
| 2026-05-05 15:19 | 43.04596 | 12.40307 | 15966 ft | 300 kts | 214° |
| 2026-05-05 15:20 | 43.02820 | 12.38822 | 15505 ft | 297 kts | 214° |
| 2026-05-05 15:20 | 43.01033 | 12.37325 | 15140 ft | 311 kts | 214° |
| 2026-05-05 15:20 | 42.99132 | 12.35731 | 15059 ft | 325 kts | 214° |
| 2026-05-05 15:20 | 42.97190 | 12.34108 | 15045 ft | 328 kts | 213° |
| 2026-05-05 15:21 | 42.95238 | 12.32483 | 15052 ft | 330 kts | 213° |
| 2026-05-05 15:21 | 42.93278 | 12.30859 | 15035 ft | 322 kts | 213° |
| 2026-05-05 15:21 | 42.91415 | 12.29321 | 14908 ft | 306 kts | 213° |
| 2026-05-05 15:21 | 42.89644 | 12.27858 | 14589 ft | 298 kts | 214° |
| 2026-05-05 15:22 | 42.87884 | 12.26403 | 14157 ft | 294 kts | 213° |
| 2026-05-05 15:22 | 42.86142 | 12.24957 | 13684 ft | 291 kts | 214° |
| 2026-05-05 15:22 | 42.84418 | 12.23526 | 13184 ft | 288 kts | 213° |
| 2026-05-05 15:22 | 42.82711 | 12.22111 | 12663 ft | 287 kts | 214° |
| 2026-05-05 15:23 | 42.81008 | 12.20699 | 12151 ft | 286 kts | 213° |
| 2026-05-05 15:23 | 42.79319 | 12.19299 | 11694 ft | 283 kts | 213° |
| 2026-05-05 15:23 | 42.77618 | 12.17965 | 11221 ft | 282 kts | 208° |
| 2026-05-05 15:23 | 42.75779 | 12.17040 | 10753 ft | 283 kts | 196° |
| 2026-05-05 15:24 | 42.73830 | 12.16648 | 10302 ft | 283 kts | 188° |
| 2026-05-05 15:24 | 42.71859 | 12.16497 | 10082 ft | 283 kts | 184° |
| 2026-05-05 15:24 | 42.69913 | 12.16768 | 10040 ft | 287 kts | 169° |
| 2026-05-05 15:24 | 42.68039 | 12.17796 | 10041 ft | 292 kts | 155° |
| 2026-05-05 15:25 | 42.66272 | 12.19156 | 10042 ft | 293 kts | 153° |
| 2026-05-05 15:25 | 42.64519 | 12.20578 | 10043 ft | 293 kts | 153° |
| 2026-05-05 15:25 | 42.62770 | 12.21999 | 10042 ft | 293 kts | 153° |
| 2026-05-05 15:25 | 42.61023 | 12.23412 | 10045 ft | 293 kts | 153° |
| 2026-05-05 15:26 | 42.59285 | 12.24810 | 10045 ft | 293 kts | 153° |
| 2026-05-05 15:26 | 42.57529 | 12.26218 | 10045 ft | 293 kts | 153° |
| 2026-05-05 15:26 | 42.55769 | 12.27625 | 10043 ft | 293 kts | 154° |
| 2026-05-05 15:26 | 42.54012 | 12.29027 | 10043 ft | 293 kts | 154° |
| 2026-05-05 15:27 | 42.52251 | 12.30433 | 10047 ft | 294 kts | 154° |
| 2026-05-05 15:27 | 42.50490 | 12.31836 | 10049 ft | 294 kts | 153° |
| 2026-05-05 15:27 | 42.48728 | 12.33239 | 10046 ft | 294 kts | 154° |
| 2026-05-05 15:27 | 42.46960 | 12.34646 | 10045 ft | 294 kts | 154° |
| 2026-05-05 15:28 | 42.45197 | 12.36049 | 10042 ft | 294 kts | 154° |
| 2026-05-05 15:28 | 42.43431 | 12.37454 | 10044 ft | 294 kts | 154° |
| 2026-05-05 15:28 | 42.41669 | 12.38854 | 9921 ft | 293 kts | 153° |
| 2026-05-05 15:28 | 42.39906 | 12.40254 | 9189 ft | 298 kts | 153° |
| 2026-05-05 15:29 | 42.38080 | 12.41697 | 8491 ft | 318 kts | 153° |
| 2026-05-05 15:29 | 42.36100 | 12.43133 | 8130 ft | 325 kts | 160° |
| 2026-05-05 15:29 | 42.33976 | 12.44173 | 8068 ft | 320 kts | 164° |
| 2026-05-05 15:29 | 42.31912 | 12.45046 | 7984 ft | 304 kts | 168° |
| 2026-05-05 15:30 | 42.29855 | 12.45256 | 7671 ft | 293 kts | 191° |
| 2026-05-05 15:30 | 42.28033 | 12.44319 | 7346 ft | 270 kts | 217° |
| 2026-05-05 15:30 | 42.26847 | 12.42523 | 7038 ft | 249 kts | 243° |
| 2026-05-05 15:30 | 42.26240 | 12.40393 | 6577 ft | 241 kts | 252° |
| 2026-05-05 15:31 | 42.25793 | 12.38259 | 6016 ft | 236 kts | 253° |
| 2026-05-05 15:31 | 42.25375 | 12.36110 | 5341 ft | 236 kts | 254° |
| 2026-05-05 15:31 | 42.24955 | 12.33949 | 4614 ft | 239 kts | 253° |
| 2026-05-05 15:31 | 42.24639 | 12.31782 | 4130 ft | 234 kts | 265° |
| 2026-05-05 15:32 | 42.24857 | 12.29609 | 3453 ft | 241 kts | 281° |
| 2026-05-05 15:32 | 42.25328 | 12.27425 | 3077 ft | 247 kts | 283° |
| 2026-05-05 15:32 | 42.25859 | 12.25150 | 3437 ft | 259 kts | 283° |
| 2026-05-05 15:32 | 42.26123 | 12.22908 | 3825 ft | 226 kts | 259° |
| 2026-05-05 15:33 | 42.25624 | 12.21020 | 3644 ft | 209 kts | 229° |
| 2026-05-05 15:33 | 42.24530 | 12.19777 | 3060 ft | 207 kts | 208° |
| 2026-05-05 15:33 | 42.23231 | 12.18879 | 2545 ft | 210 kts | 203° |
| 2026-05-05 15:33 | 42.21943 | 12.18015 | 2461 ft | 205 kts | 204° |
| 2026-05-05 15:34 | 42.20627 | 12.17263 | 2460 ft | 208 kts | 194° |
| 2026-05-05 15:34 | 42.19185 | 12.17068 | 2467 ft | 209 kts | 175° |
| 2026-05-05 15:34 | 42.17800 | 12.17523 | 2475 ft | 207 kts | 161° |
| 2026-05-05 15:34 | 42.16475 | 12.18274 | 2545 ft | 208 kts | 156° |
| 2026-05-05 15:35 | 42.15135 | 12.18991 | 2886 ft | 205 kts | 166° |
| 2026-05-05 15:35 | 42.13730 | 12.19221 | 2964 ft | 204 kts | 178° |
| 2026-05-05 15:35 | 42.12295 | 12.19268 | 2963 ft | 205 kts | 179° |
| 2026-05-05 15:35 | 42.10885 | 12.19329 | 2616 ft | 203 kts | 178° |
| 2026-05-05 15:36 | 42.09482 | 12.19389 | 2472 ft | 201 kts | 179° |
| 2026-05-05 15:36 | 42.08077 | 12.19445 | 2461 ft | 204 kts | 178° |
| 2026-05-05 15:36 | 42.06643 | 12.19475 | 2472 ft | 204 kts | 179° |
| 2026-05-05 15:36 | 42.05283 | 12.19507 | 2479 ft | 187 kts | 179° |
| 2026-05-05 15:37 | 42.04076 | 12.19553 | 2463 ft | 163 kts | 178° |
| 2026-05-05 15:37 | 42.03005 | 12.19591 | 2456 ft | 148 kts | 178° |
| 2026-05-05 15:37 | 42.01984 | 12.19603 | 2464 ft | 146 kts | 178° |
| 2026-05-05 15:37 | 42.00970 | 12.19623 | 2462 ft | 145 kts | 176° |
| 2026-05-05 15:38 | 41.99962 | 12.19786 | 2463 ft | 146 kts | 170° |
| 2026-05-05 15:38 | 41.98981 | 12.20120 | 2466 ft | 146 kts | 167° |
| 2026-05-05 15:38 | 41.98006 | 12.20513 | 2468 ft | 146 kts | 165° |
| 2026-05-05 15:38 | 41.97031 | 12.20927 | 2460 ft | 149 kts | 164° |
| 2026-05-05 15:39 | 41.96028 | 12.21344 | 2432 ft | 148 kts | 165° |
| 2026-05-05 15:39 | 41.95098 | 12.21726 | 2225 ft | 131 kts | 165° |
| 2026-05-05 15:39 | 41.94274 | 12.22070 | 2026 ft | 118 kts | 163° |
| 2026-05-05 15:39 | 41.93512 | 12.22392 | 1880 ft | 115 kts | 163° |
| 2026-05-05 15:40 | 41.92749 | 12.22714 | 1733 ft | 115 kts | 163° |
| 2026-05-05 15:40 | 41.91985 | 12.23035 | 1562 ft | 115 kts | 163° |
| 2026-05-05 15:40 | 41.91221 | 12.23356 | 1410 ft | 115 kts | 162° |
| 2026-05-05 15:40 | 41.90456 | 12.23669 | 1167 ft | 114 kts | 160° |
| 2026-05-05 15:41 | 41.89698 | 12.24000 | 979 ft | 114 kts | 163° |
| 2026-05-05 15:41 | 41.88942 | 12.24319 | 860 ft | 114 kts | 164° |
| 2026-05-05 15:41 | 41.88182 | 12.24614 | 741 ft | 116 kts | 164° |
| 2026-05-05 15:41 | 41.87411 | 12.24939 | 581 ft | 115 kts | 159° |
| 2026-05-05 15:42 | 41.86659 | 12.25285 | 413 ft | 115 kts | 161° |
| 2026-05-05 15:42 | 41.85897 | 12.25597 | 314 ft | 114 kts | 161° |
| 2026-05-05 15:42 | 41.85154 | 12.25924 | 178 ft | 110 kts | 162° |
| 2026-05-05 15:42 | 41.84428 | 12.26216 | 45 ft | 109 kts | 163° |
| 2026-05-05 15:43 | 41.83748 | 12.26490 | 20 ft | 89 kts | 155° |
| 2026-05-05 15:43 | 41.83249 | 12.26712 | 19 ft | 63 kts | 163° |
| 2026-05-05 15:43 | 41.82887 | 12.26854 | 20 ft | 49 kts | 171° |
| 2026-05-05 15:43 | 41.82591 | 12.26835 | 18 ft | 35 kts | 193° |
| 2026-05-05 15:44 | 41.82353 | 12.26777 | 15 ft | 36 kts | 177° |
| 2026-05-05 15:44 | 41.82116 | 12.26864 | 13 ft | 34 kts | 162° |
| 2026-05-05 15:44 | 41.81937 | 12.26939 | 15 ft | 20 kts | 163° |
| 2026-05-05 15:44 | 41.81818 | 12.26937 | 16 ft | 16 kts | 189° |
| 2026-05-05 15:45 | 41.81710 | 12.26908 | 20 ft | 17 kts | 184° |
| 2026-05-05 15:45 | 41.81582 | 12.26951 | 21 ft | 21 kts | 160° |
| 2026-05-05 15:45 | 41.81435 | 12.27012 | 20 ft | 22 kts | 162° |
| 2026-05-05 15:45 | 41.81287 | 12.27074 | 19 ft | 22 kts | 162° |
| 2026-05-05 15:46 | 41.81134 | 12.27137 | 19 ft | 23 kts | 162° |
| 2026-05-05 15:46 | 41.80972 | 12.27206 | 13 ft | 26 kts | 162° |
| 2026-05-05 15:46 | 41.80833 | 12.27201 | 13 ft | 17 kts | 202° |
| 2026-05-05 15:46 | 41.80765 | 12.27110 | 13 ft | 13 kts | 248° |
| 2026-05-05 15:47 | 41.80730 | 12.26977 | 14 ft | 17 kts | 254° |
| 2026-05-05 15:47 | 41.80707 | 12.26872 | 12 ft | 18 kts | 252° |